createdAt,value
2023-05-18T00:00:12.170Z,17.2
2023-05-18T00:05:36.313Z,17.2
2023-05-18T00:10:57.103Z,17.2
2023-05-18T00:16:18.855Z,17.2
2023-05-18T00:21:40.560Z,17.2
2023-05-18T00:27:01.163Z,17.2
2023-05-18T00:32:37.903Z,17.2
2023-05-18T00:38:15.549Z,17.2
2023-05-18T00:44:06.719Z,17.1
2023-05-18T00:49:58.966Z,17.2
2023-05-18T00:55:35.454Z,17.2
2023-05-18T01:01:26.417Z,17.1
2023-05-18T01:06:47.822Z,17.2
2023-05-18T01:12:40.039Z,17.1
2023-05-18T01:18:31.354Z,17.1
2023-05-18T01:24:22.627Z,17.2
2023-05-18T01:29:59.151Z,17.1
2023-05-18T01:35:35.402Z,17.1
2023-05-18T01:41:29.413Z,17.1
2023-05-18T01:47:06.475Z,17.1
2023-05-18T01:52:42.880Z,17.1
2023-05-18T01:58:19.198Z,17.1
2023-05-18T02:04:13.560Z,17.1
2023-05-18T02:09:48.402Z,17.1
2023-05-18T02:15:39.914Z,17.1
2023-05-18T02:21:34.036Z,17.1
2023-05-18T02:27:27.213Z,17.1
2023-05-18T02:33:03.732Z,17.1
2023-05-18T02:38:40.974Z,17.1
2023-05-18T02:44:31.981Z,17.1
2023-05-18T02:50:08.917Z,17.1
2023-05-18T02:56:00.374Z,17.1
2023-05-18T03:01:53.787Z,17.1
2023-05-18T03:07:47.388Z,17.1
2023-05-18T03:13:39.085Z,17.1
2023-05-18T03:19:16.157Z,17.1
2023-05-18T03:24:37.936Z,17.1
2023-05-18T03:30:14.379Z,17.1
2023-05-18T03:36:06.821Z,17.1
2023-05-18T03:41:58.568Z,17.1
2023-05-18T03:47:34.954Z,17.1
2023-05-18T03:53:26.722Z,17.1
2023-05-18T03:59:19.221Z,17.1
2023-05-18T04:05:12.396Z,17.1
2023-05-18T04:11:06.020Z,17.1
2023-05-18T04:16:58.046Z,17.1
2023-05-18T04:22:51.169Z,17.1
2023-05-18T04:28:42.609Z,17.1
2023-05-18T04:34:33.435Z,17.1
2023-05-18T04:40:11.319Z,17.1
2023-05-18T04:46:03.090Z,17.1
2023-05-18T04:51:55.839Z,17.1
2023-05-18T04:57:32.252Z,17.1
2023-05-18T05:03:24.009Z,17.1
2023-05-18T05:09:18.871Z,17.1
2023-05-18T05:15:10.734Z,17.1
2023-05-18T05:21:02.745Z,17.1
2023-05-18T05:26:55.574Z,17.1
2023-05-18T05:32:32.470Z,17.1
2023-05-18T05:38:24.442Z,17.1
2023-05-18T05:44:18.381Z,17.1
2023-05-18T05:50:10.220Z,17.1
2023-05-18T05:56:01.747Z,17.1
2023-05-18T06:01:53.371Z,17.1
2023-05-18T06:07:46.703Z,17.1
2023-05-18T06:13:40.566Z,17.1
2023-05-18T06:19:36.803Z,17.1
2023-05-18T06:25:28.233Z,17.1
2023-05-18T06:31:19.974Z,17.1
2023-05-18T06:42:49.990Z,17.1
2023-05-18T06:59:54.202Z,17.1
2023-05-18T07:05:46.878Z,17.1
2023-05-18T07:16:59.558Z,17.1
2023-05-18T07:22:54.221Z,17.1
2023-05-18T07:34:22.958Z,17.1
2023-05-18T07:45:52.124Z,17.1
2023-05-18T08:14:09.934Z,17.1
2023-05-18T11:23:24.138Z,17.1
2023-05-18T12:41:57.306Z,17.1
2023-05-18T12:47:51.948Z,17.1
2023-05-18T12:53:45.711Z,17.1
2023-05-18T13:11:01.573Z,17.1
2023-05-18T13:17:09.934Z,17.1
2023-05-18T13:34:03.871Z,17.1
2023-05-18T13:56:34.256Z,17.1
2023-05-18T14:02:26.335Z,17.1
2023-05-18T14:13:40.759Z,17.1
2023-05-18T14:19:32.781Z,17.1
2023-05-18T14:25:23.776Z,17.1
2023-05-18T14:31:15.979Z,17.1
2023-05-18T14:37:09.456Z,17.1
2023-05-18T14:42:44.709Z,17.1
2023-05-18T14:48:52.876Z,17.1
2023-05-18T14:54:46.297Z,17.1
2023-05-18T15:00:36.655Z,17.1
2023-05-18T15:06:30.458Z,17.1
2023-05-18T15:12:06.464Z,17.1
2023-05-18T15:17:57.555Z,17.1
2023-05-18T15:23:49.803Z,17.1
2023-05-18T15:29:43.117Z,17.2
2023-05-18T15:35:34.270Z,17.2
2023-05-18T15:41:26.223Z,17.3
2023-05-18T15:47:17.715Z,17.6
2023-05-18T15:52:53.797Z,17.8
2023-05-18T15:58:45.537Z,18
2023-05-18T16:04:38.618Z,18.2
2023-05-18T16:10:13.868Z,18.4
2023-05-18T16:15:53.484Z,18.5
2023-05-18T16:21:45.569Z,18.8
2023-05-18T16:27:06.138Z,18.9
2023-05-18T16:32:58.978Z,19
2023-05-18T16:38:50.220Z,19.1
2023-05-18T16:44:43.132Z,19.2
2023-05-18T16:50:35.854Z,19.3
2023-05-18T16:56:30.055Z,19.4
2023-05-18T17:02:36.205Z,19.6
2023-05-18T17:08:30.055Z,19.7
2023-05-18T17:14:09.204Z,19.8
2023-05-18T17:19:45.564Z,19.9
2023-05-18T17:25:37.988Z,20
2023-05-18T17:31:27.861Z,20.1
2023-05-18T17:37:20.000Z,20.1
2023-05-18T17:43:11.479Z,20.2
2023-05-18T17:49:04.111Z,20.2
2023-05-18T17:54:55.051Z,20.2
2023-05-18T18:00:31.321Z,20.2
2023-05-18T18:06:24.978Z,20.1
2023-05-18T18:12:01.477Z,20.1
2023-05-18T18:17:54.130Z,20.2
2023-05-18T18:23:31.048Z,20.2
2023-05-18T18:29:06.745Z,20.2
2023-05-18T18:34:28.350Z,20.2
2023-05-18T18:40:20.648Z,20.2
2023-05-18T18:46:12.358Z,20.2
2023-05-18T18:52:04.707Z,20.2
2023-05-18T18:57:56.256Z,20.2
2023-05-18T19:03:31.707Z,20.2
2023-05-18T19:09:24.576Z,20.2
2023-05-18T19:15:00.989Z,20.2
2023-05-18T19:20:53.977Z,20.3
2023-05-18T19:26:46.310Z,20.3
2023-05-18T19:32:38.889Z,20.3
2023-05-18T19:38:15.665Z,20.3
2023-05-18T19:44:10.278Z,20.3
2023-05-18T19:50:03.287Z,20.3
2023-05-18T19:55:53.633Z,20.1
2023-05-18T20:01:46.467Z,20.1
2023-05-18T20:07:23.315Z,20
2023-05-18T20:13:14.559Z,19.9
2023-05-18T20:19:07.197Z,19.9
2023-05-18T20:24:28.700Z,19.9
2023-05-18T20:30:07.142Z,19.8
2023-05-18T20:35:44.227Z,19.7
2023-05-18T20:41:21.245Z,19.6
2023-05-18T20:46:57.014Z,19.5
2023-05-18T20:52:49.410Z,19.4
2023-05-18T20:58:40.859Z,19.4
2023-05-18T21:04:36.433Z,19.3
2023-05-18T21:09:57.595Z,19.3
2023-05-18T21:15:34.193Z,19.2
2023-05-18T21:21:26.491Z,19.1
2023-05-18T21:27:17.836Z,19.1
2023-05-18T21:33:10.886Z,19.1
2023-05-18T21:39:02.172Z,19
2023-05-18T21:44:23.134Z,18.9
2023-05-18T21:50:02.570Z,18.9
2023-05-18T21:55:39.658Z,18.8
2023-05-18T22:01:15.991Z,18.8
2023-05-18T22:07:08.255Z,18.8
2023-05-18T22:24:08.701Z,18.6
2023-05-18T22:29:43.885Z,18.6
2023-05-18T22:35:20.225Z,18.6
2023-05-18T22:40:41.021Z,18.5
2023-05-18T22:46:31.853Z,18.5
2023-05-18T22:52:24.133Z,18.5
2023-05-18T22:58:00.454Z,18.4
2023-05-18T23:03:36.774Z,18.4
2023-05-18T23:09:12.847Z,18.4
2023-05-18T23:15:04.317Z,18.4
2023-05-18T23:20:56.194Z,18.3
2023-05-18T23:26:47.920Z,18.3
2023-05-18T23:32:40.283Z,18.3
2023-05-18T23:38:32.518Z,18.3
2023-05-18T23:44:24.697Z,18.3
2023-05-18T23:50:16.717Z,18.2
2023-05-18T23:56:08.363Z,18.2
